Aérodrome :
LOGIN :

S'inscrire | Disclaimer

   EN    FR    IT 

 










Légende :    VFR   VFR Marginal   IFR   IFR Intensif   IFR Très Intensif
Visi : 
Plafond : 
>= 8 km
>= 3000ft
5 à 8 km
1000 à 3000 ft
1500m à 5 km
500 à 1000 ft
800 à 1500m
200 à 500 ft
< 800m
< 200 ft
Symboles :   Orages  Brouillard  Fortes neiges  Fortes précipitations  Vent > 20 kt
SIGMETs :   Divers  Orages  Givrage  Turbulence  Onde Orograph.  Cendres Volcan.







- Altitude de l'aérodrome : 526 ft
- Code IATA : LTN
- Voir les cartes d'approche


EGGW - London Luton

DERNIER METAR :
  • 250950Z AUTO 26016KT 9999 FEW027 BKN036 11/05 Q1012

METARs EXPIRÉS :
  • 250920Z AUTO 25016KT 9999 BKN025 BKN033 11/06 Q1012
  • 250850Z AUTO 26017KT 9999 SCT022 BKN026 10/06 Q1012
  • 250820Z AUTO 26014KT 9999 BKN017 BKN022 10/07 Q1011
  • 250750Z AUTO 25014KT 9999 BKN012 10/07 Q1011
  • 250720Z AUTO 26012KT 9999 FEW010 09/07 Q1011

TAF AMD TAF EGGW
Valide du 25 à 07h jusqu'au 26 à 06h UTC


250721Z 2507/2606 26012KT 9999 SCT025
TEMPO 2507/2509 BKN009
TEMPO 2509/2521 26015G25KT 7000 SHRA
PROB30
TEMPO 2513/2519 3000 +SHRA TSGS BKN014 BKN020CB
ATIS : +44 1582 395 204
Pas de NOTAMs connus pour ce terrain.



MET'MAP, la Météo Aéronautique d'un coup d'oeil ! - Copyright ORBIFLY Décembre 2007 - Disclaimer

ORBIFLY MET'MAP TEAM :

Programmation & Développement : Alexandra Zaïnal
Conception & Développement : Baudouin d'Aumeries
Co-Programmation & Développement : Marc-Olivier Méhu
Soutien technique & logistique : Manuel Goepfert

Contact : metmap@orbifly.com




SOURCES & CREDITS :

   NOAA